createdAt,value
2022-10-09T00:01:06.877Z,2.80
2022-10-09T00:03:56.485Z,3.40
2022-10-09T00:06:42.661Z,3.23
2022-10-09T00:09:29.280Z,2.93
2022-10-09T00:12:15.605Z,3.97
2022-10-09T00:15:02.090Z,2.80
2022-10-09T00:17:48.847Z,3.00
2022-10-09T00:20:37.269Z,3.37
2022-10-09T00:23:23.693Z,3.20
2022-10-09T00:26:09.752Z,3.40
2022-10-09T00:28:56.568Z,3.73
2022-10-09T00:31:42.843Z,3.83
2022-10-09T00:34:29.343Z,6.00
2022-10-09T00:37:15.377Z,4.23
2022-10-09T00:40:01.830Z,4.57
2022-10-09T00:42:56.010Z,5.70
2022-10-09T00:45:47.441Z,5.53
2022-10-09T00:48:33.886Z,5.83
2022-10-09T00:51:20.074Z,6.50
2022-10-09T00:54:09.883Z,5.30
2022-10-09T00:56:56.494Z,6.23
2022-10-09T00:59:42.808Z,4.93
2022-10-09T01:02:29.022Z,5.37
2022-10-09T01:05:15.562Z,6.83
2022-10-09T01:08:13.990Z,5.77
2022-10-09T01:11:14.305Z,4.80
2022-10-09T01:14:04.998Z,5.50
2022-10-09T01:17:02.198Z,5.20
2022-10-09T01:20:26.311Z,4.67
2022-10-09T01:23:44.038Z,4.70
2022-10-09T01:26:48.387Z,4.87
2022-10-09T01:29:40.647Z,5.20
2022-10-09T01:32:32.294Z,4.97
2022-10-09T01:35:20.541Z,5.03
2022-10-09T01:38:07.470Z,4.27
2022-10-09T01:40:53.971Z,5.63
2022-10-09T01:43:41.109Z,4.63
2022-10-09T01:46:33.570Z,5.00
2022-10-09T01:49:41.974Z,4.87
2022-10-09T01:52:55.771Z,5.53
2022-10-09T01:55:41.734Z,5.00
2022-10-09T01:58:51.775Z,3.80
2022-10-09T02:01:39.531Z,3.57
2022-10-09T02:04:27.429Z,3.47
2022-10-09T02:07:14.183Z,3.97
2022-10-09T02:10:02.750Z,3.63
2022-10-09T02:12:58.744Z,3.50
2022-10-09T02:16:04.286Z,4.33
2022-10-09T02:18:56.145Z,5.50
2022-10-09T02:21:48.040Z,3.97
2022-10-09T02:24:39.537Z,3.70
2022-10-09T02:27:26.670Z,4.20
2022-10-09T02:30:14.990Z,4.03
2022-10-09T02:33:01.439Z,3.63
2022-10-09T02:35:48.357Z,3.43
2022-10-09T02:38:34.870Z,3.80
2022-10-09T02:41:22.277Z,3.97
2022-10-09T02:44:08.769Z,3.57
2022-10-09T02:46:54.890Z,3.67
2022-10-09T02:49:41.242Z,4.13
2022-10-09T02:52:27.366Z,3.57
2022-10-09T02:55:13.920Z,3.50
2022-10-09T02:58:00.246Z,4.67
2022-10-09T03:00:51.810Z,3.60
2022-10-09T03:03:38.017Z,3.50
2022-10-09T03:06:27.108Z,4.13
2022-10-09T03:09:13.586Z,4.20
2022-10-09T03:11:59.667Z,3.83
2022-10-09T03:14:46.026Z,3.43
2022-10-09T03:17:32.533Z,3.07
2022-10-09T03:20:19.198Z,3.90
2022-10-09T03:23:05.955Z,3.57
2022-10-09T03:25:59.622Z,4.13
2022-10-09T03:28:48.762Z,4.70
2022-10-09T03:31:52.828Z,4.23
2022-10-09T03:34:39.678Z,3.50
2022-10-09T03:37:25.905Z,3.50
2022-10-09T03:40:12.012Z,3.43
2022-10-09T03:42:58.550Z,3.33
2022-10-09T03:45:45.015Z,3.07
2022-10-09T03:48:31.263Z,2.60
2022-10-09T03:51:17.394Z,3.00
2022-10-09T03:54:04.077Z,2.53
2022-10-09T03:56:50.261Z,2.83
2022-10-09T03:59:36.738Z,3.00
2022-10-09T04:02:23.175Z,3.23
2022-10-09T04:05:09.438Z,4.30
2022-10-09T04:07:55.822Z,2.73
2022-10-09T04:10:42.157Z,3.20
2022-10-09T04:13:29.117Z,3.07
2022-10-09T04:16:15.310Z,3.77
2022-10-09T04:19:01.794Z,3.03
2022-10-09T04:21:47.996Z,3.83
2022-10-09T04:24:34.573Z,3.30
2022-10-09T04:27:20.904Z,3.23
2022-10-09T04:30:07.958Z,3.73
2022-10-09T04:32:54.044Z,3.60
2022-10-09T04:35:44.330Z,3.10
2022-10-09T04:38:31.733Z,3.13
2022-10-09T04:41:18.248Z,4.47
2022-10-09T04:44:04.764Z,3.23
2022-10-09T04:46:51.778Z,3.60
2022-10-09T04:49:37.934Z,3.27
2022-10-09T04:52:24.037Z,3.87
2022-10-09T04:55:10.470Z,4.57
2022-10-09T04:57:56.757Z,3.30
2022-10-09T05:00:44.951Z,3.40
2022-10-09T05:03:31.934Z,3.27
2022-10-09T05:06:19.689Z,3.83
2022-10-09T05:09:06.071Z,3.10
2022-10-09T05:11:52.723Z,3.90
2022-10-09T05:14:38.878Z,4.47
2022-10-09T05:17:25.366Z,3.60
2022-10-09T05:20:11.797Z,4.03
2022-10-09T05:22:57.906Z,3.50
2022-10-09T05:25:44.386Z,3.47
2022-10-09T05:28:30.782Z,3.80
2022-10-09T05:31:23.620Z,3.57
2022-10-09T05:34:10.389Z,4.20
2022-10-09T05:36:56.970Z,4.00
2022-10-09T05:39:43.247Z,3.63
2022-10-09T05:42:29.382Z,5.13
2022-10-09T05:45:15.713Z,4.10
2022-10-09T05:48:01.806Z,4.20
2022-10-09T05:50:48.555Z,4.53
2022-10-09T05:53:35.477Z,4.77
2022-10-09T05:56:27.936Z,5.07
2022-10-09T05:59:19.628Z,6.03
2022-10-09T06:02:06.400Z,4.37
2022-10-09T06:04:52.801Z,5.33
2022-10-09T06:07:39.249Z,4.50
2022-10-09T06:10:30.213Z,4.27
2022-10-09T06:13:18.548Z,4.33
2022-10-09T06:16:04.970Z,3.70
2022-10-09T06:18:53.045Z,4.10
2022-10-09T06:21:39.233Z,3.80
2022-10-09T06:24:29.106Z,4.33
2022-10-09T06:27:15.952Z,3.53
2022-10-09T06:30:02.173Z,3.67
2022-10-09T06:32:49.676Z,5.57
2022-10-09T06:35:36.038Z,4.40
2022-10-09T06:38:22.439Z,5.00
2022-10-09T06:41:12.227Z,4.23
2022-10-09T06:44:01.607Z,4.80
2022-10-09T06:46:49.521Z,3.90
2022-10-09T06:49:35.883Z,4.83
2022-10-09T06:52:22.301Z,5.00
2022-10-09T06:55:08.902Z,4.23
2022-10-09T06:57:55.100Z,4.17
2022-10-09T07:00:41.748Z,3.50
2022-10-09T07:03:28.096Z,4.03
2022-10-09T07:06:19.873Z,3.17
2022-10-09T07:09:08.382Z,3.97
2022-10-09T07:11:54.444Z,3.20
2022-10-09T07:14:40.863Z,2.87
2022-10-09T07:17:36.849Z,3.37
2022-10-09T07:20:23.224Z,3.00
2022-10-09T07:23:09.841Z,3.40
2022-10-09T07:25:56.340Z,3.50
2022-10-09T07:28:43.482Z,3.30
2022-10-09T07:31:29.668Z,3.17
2022-10-09T07:34:16.282Z,3.60
2022-10-09T07:37:02.399Z,3.27
2022-10-09T07:39:48.883Z,3.20
2022-10-09T07:42:35.427Z,3.57
2022-10-09T07:45:21.890Z,2.67
2022-10-09T07:48:07.988Z,3.10
2022-10-09T07:50:55.522Z,3.57
2022-10-09T07:53:42.178Z,3.60
2022-10-09T07:56:35.014Z,3.10
2022-10-09T07:59:21.592Z,3.50
2022-10-09T08:02:08.937Z,3.30
2022-10-09T08:04:55.518Z,2.93
2022-10-09T08:07:41.939Z,3.03
2022-10-09T08:10:32.078Z,3.07
2022-10-09T08:13:18.459Z,4.00
2022-10-09T08:16:05.837Z,3.27
2022-10-09T08:18:57.447Z,3.17
2022-10-09T08:21:43.702Z,3.43
2022-10-09T08:24:30.075Z,3.83
2022-10-09T08:27:16.609Z,4.37
2022-10-09T08:30:02.828Z,3.70
2022-10-09T08:32:49.320Z,3.10
2022-10-09T08:35:35.944Z,4.13
2022-10-09T08:38:45.658Z,3.90
2022-10-09T08:41:42.230Z,3.50
2022-10-09T08:44:41.337Z,3.63
2022-10-09T08:47:36.682Z,3.97
2022-10-09T08:50:29.131Z,3.80
2022-10-09T08:53:40.621Z,3.43
2022-10-09T08:56:28.830Z,4.00
2022-10-09T08:59:15.106Z,4.50
2022-10-09T09:02:27.772Z,3.60
2022-10-09T09:05:50.659Z,4.37
2022-10-09T09:09:01.138Z,4.30
2022-10-09T09:12:23.177Z,4.40
2022-10-09T09:15:16.591Z,4.00
2022-10-09T09:18:29.035Z,3.50
2022-10-09T09:21:40.529Z,3.50
2022-10-09T09:24:44.722Z,3.40
2022-10-09T09:27:36.696Z,3.20
2022-10-09T09:30:29.171Z,3.47
2022-10-09T09:33:23.071Z,3.63
2022-10-09T09:36:16.254Z,3.70
2022-10-09T09:42:15.834Z,3.30
2022-10-09T09:45:05.637Z,3.57
2022-10-09T09:48:06.110Z,3.20
2022-10-09T09:51:10.361Z,3.47
2022-10-09T09:54:04.081Z,3.13
2022-10-09T09:57:12.037Z,3.20
2022-10-09T10:00:20.882Z,3.50
2022-10-09T10:03:17.822Z,4.27
2022-10-09T10:06:04.701Z,2.93
2022-10-09T10:08:59.337Z,3.30
2022-10-09T10:11:49.255Z,2.80
2022-10-09T10:14:35.661Z,2.53
2022-10-09T10:17:35.460Z,3.07
2022-10-09T10:20:21.809Z,2.57
2022-10-09T10:23:33.119Z,2.57
2022-10-09T10:26:19.504Z,2.30
2022-10-09T10:29:15.194Z,3.43
2022-10-09T10:32:26.153Z,2.80
2022-10-09T10:35:20.855Z,2.73
2022-10-09T10:38:38.659Z,2.60
2022-10-09T10:41:34.667Z,2.40
2022-10-09T10:44:45.990Z,2.30
2022-10-09T10:47:35.934Z,2.67
2022-10-09T10:50:24.842Z,2.60
2022-10-09T10:53:35.906Z,1.70
2022-10-09T10:56:28.335Z,2.73
2022-10-09T10:59:29.409Z,2.33
2022-10-09T11:02:44.172Z,2.00
2022-10-09T11:05:39.959Z,1.97
2022-10-09T11:08:51.232Z,1.83
2022-10-09T11:11:47.853Z,1.90
2022-10-09T11:14:57.321Z,1.80
2022-10-09T11:17:55.823Z,1.23
2022-10-09T11:21:00.867Z,1.87
2022-10-09T11:23:58.703Z,1.60
2022-10-09T11:26:54.247Z,1.63
2022-10-09T11:29:46.690Z,1.43
2022-10-09T11:32:38.617Z,1.50
2022-10-09T11:35:30.990Z,1.30
2022-10-09T11:38:42.349Z,1.60
2022-10-09T11:41:30.382Z,1.70
2022-10-09T11:44:31.986Z,2.27
2022-10-09T11:47:31.062Z,1.60
2022-10-09T11:50:42.467Z,1.70
2022-10-09T11:53:31.822Z,1.70
2022-10-09T11:56:26.930Z,1.43
2022-10-09T11:59:22.290Z,1.27
2022-10-09T12:02:21.059Z,1.77
2022-10-09T12:05:44.426Z,1.53
2022-10-09T12:08:30.716Z,1.50
2022-10-09T12:11:19.254Z,1.63
2022-10-09T12:14:08.219Z,1.70
2022-10-09T12:16:54.954Z,1.20
2022-10-09T12:19:42.145Z,1.70
2022-10-09T12:22:49.306Z,1.33
2022-10-09T12:25:45.186Z,1.30
2022-10-09T12:28:38.304Z,1.60
2022-10-09T12:31:33.147Z,1.40
2022-10-09T12:34:25.257Z,1.33
2022-10-09T12:37:20.659Z,1.60
2022-10-09T12:40:16.549Z,1.27
2022-10-09T12:43:07.927Z,1.40
2022-10-09T12:45:54.687Z,1.53
2022-10-09T12:48:43.494Z,1.47
2022-10-09T12:51:32.222Z,1.90
2022-10-09T12:54:18.875Z,1.23
2022-10-09T12:57:05.406Z,1.50
2022-10-09T12:59:52.322Z,1.40
2022-10-09T13:02:40.085Z,1.60
2022-10-09T13:05:37.696Z,1.20
2022-10-09T13:08:34.138Z,1.50
2022-10-09T13:11:28.041Z,1.23
2022-10-09T13:14:34.699Z,1.30
2022-10-09T13:20:31.242Z,1.23
2022-10-09T13:23:35.014Z,1.50
2022-10-09T13:26:27.283Z,1.13
2022-10-09T13:29:14.661Z,1.40
2022-10-09T13:32:02.869Z,1.40
2022-10-09T13:34:49.245Z,1.37
2022-10-09T13:37:35.375Z,1.30
2022-10-09T13:40:22.227Z,0.97
2022-10-09T13:43:14.189Z,1.10
2022-10-09T13:46:00.426Z,1.30
2022-10-09T13:48:46.593Z,1.40
2022-10-09T13:51:33.054Z,1.40
2022-10-09T13:54:19.290Z,1.17
2022-10-09T13:57:05.503Z,1.40
2022-10-09T13:59:51.650Z,1.70
2022-10-09T14:02:38.699Z,1.43
2022-10-09T14:05:26.763Z,1.27
2022-10-09T14:08:13.294Z,1.40
2022-10-09T14:11:01.052Z,1.27
2022-10-09T14:13:47.263Z,1.80
2022-10-09T14:16:33.554Z,1.60
2022-10-09T14:19:19.973Z,1.73
2022-10-09T14:22:05.969Z,1.40
2022-10-09T14:24:52.369Z,1.27
2022-10-09T14:27:41.485Z,1.40
2022-10-09T14:30:30.259Z,1.23
2022-10-09T14:33:16.487Z,1.20
2022-10-09T14:36:12.774Z,1.37
2022-10-09T14:39:03.515Z,1.47
2022-10-09T14:41:50.282Z,1.73
2022-10-09T14:44:36.794Z,1.40
2022-10-09T14:47:23.100Z,1.30
2022-10-09T14:50:09.882Z,3.07
2022-10-09T14:52:56.218Z,1.77
2022-10-09T14:55:42.366Z,1.50
2022-10-09T14:58:31.104Z,1.30
2022-10-09T15:01:19.123Z,1.20
2022-10-09T15:04:06.001Z,1.07
2022-10-09T15:06:52.726Z,1.40
2022-10-09T15:09:39.091Z,1.70
2022-10-09T15:12:25.287Z,1.10
2022-10-09T15:15:11.391Z,1.43
2022-10-09T15:17:57.711Z,1.50
2022-10-09T15:20:45.403Z,1.50
2022-10-09T15:23:31.767Z,2.17
2022-10-09T15:26:18.768Z,1.50
2022-10-09T15:29:07.434Z,1.40
2022-10-09T15:31:53.653Z,1.63
2022-10-09T15:34:41.137Z,1.40
2022-10-09T15:37:27.583Z,1.63
2022-10-09T15:40:14.406Z,1.53
2022-10-09T15:43:00.925Z,1.30
2022-10-09T15:45:47.786Z,1.50
2022-10-09T15:48:33.872Z,1.40
2022-10-09T15:51:20.654Z,1.40
2022-10-09T15:54:07.399Z,1.30
2022-10-09T15:56:54.568Z,1.60
2022-10-09T15:59:42.363Z,1.43
2022-10-09T16:02:28.692Z,1.33
2022-10-09T16:05:15.117Z,1.40
2022-10-09T16:08:01.566Z,1.50
2022-10-09T16:10:49.536Z,1.50
2022-10-09T16:13:41.152Z,1.37
2022-10-09T16:16:27.949Z,1.50
2022-10-09T16:19:14.060Z,1.97
2022-10-09T16:22:00.185Z,1.60
2022-10-09T16:24:46.570Z,1.60
2022-10-09T16:27:33.010Z,1.43
2022-10-09T16:30:19.426Z,1.37
2022-10-09T16:33:10.291Z,1.43
2022-10-09T16:36:12.490Z,1.50
2022-10-09T16:38:59.386Z,1.30
2022-10-09T16:41:45.866Z,2.13
2022-10-09T16:44:32.402Z,1.77
2022-10-09T16:47:18.666Z,1.67
2022-10-09T16:50:05.297Z,1.70
2022-10-09T16:52:51.478Z,1.90
2022-10-09T16:55:38.024Z,2.10
2022-10-09T16:58:24.257Z,1.90
2022-10-09T17:01:11.794Z,1.90
2022-10-09T17:03:59.661Z,3.23
2022-10-09T17:06:46.480Z,2.23
2022-10-09T17:09:34.142Z,2.30
2022-10-09T17:12:20.573Z,2.47
2022-10-09T17:15:07.292Z,2.70
2022-10-09T17:17:53.734Z,2.43
2022-10-09T17:20:40.063Z,2.53
2022-10-09T17:23:26.450Z,2.50
2022-10-09T17:26:18.433Z,2.57
2022-10-09T17:29:05.547Z,2.73
2022-10-09T17:31:51.834Z,2.30
2022-10-09T17:34:42.995Z,1.80
2022-10-09T17:37:29.574Z,2.10
2022-10-09T17:40:15.976Z,2.50
2022-10-09T17:43:02.347Z,2.70
2022-10-09T17:45:49.578Z,2.73
2022-10-09T17:48:36.250Z,2.70
2022-10-09T17:51:33.907Z,2.60
2022-10-09T17:54:20.214Z,2.50
2022-10-09T17:57:11.743Z,2.87
2022-10-09T17:59:57.866Z,2.30
2022-10-09T18:02:44.266Z,2.30
2022-10-09T18:05:31.095Z,2.80
2022-10-09T18:08:19.064Z,2.60
2022-10-09T18:11:08.794Z,2.70
2022-10-09T18:13:55.895Z,2.83
2022-10-09T18:16:42.583Z,2.93
2022-10-09T18:19:28.808Z,3.20
2022-10-09T18:22:15.017Z,3.33
2022-10-09T18:25:01.569Z,3.23
2022-10-09T18:27:48.212Z,10.27
2022-10-09T18:30:35.017Z,7.47
2022-10-09T18:33:21.287Z,5.27
2022-10-09T18:36:19.720Z,4.00
2022-10-09T18:39:15.003Z,3.50
2022-10-09T18:42:04.349Z,2.73
2022-10-09T18:44:51.177Z,2.83
2022-10-09T18:47:38.282Z,3.00
2022-10-09T18:50:24.973Z,3.20
2022-10-09T18:53:11.870Z,3.47
2022-10-09T18:55:58.459Z,3.07
2022-10-09T18:58:45.436Z,3.03
2022-10-09T19:01:31.752Z,3.00
2022-10-09T19:04:19.249Z,3.00
2022-10-09T19:07:05.539Z,3.17
2022-10-09T19:09:56.962Z,3.30
2022-10-09T19:12:43.732Z,3.63
2022-10-09T19:15:30.232Z,3.30
2022-10-09T19:18:16.518Z,3.47
2022-10-09T19:21:03.556Z,3.20
2022-10-09T19:23:51.574Z,4.40
2022-10-09T19:26:38.018Z,3.73
2022-10-09T19:29:24.298Z,3.53
2022-10-09T19:32:10.618Z,3.77
2022-10-09T19:34:56.931Z,3.40
2022-10-09T19:37:42.935Z,3.20
2022-10-09T19:40:29.432Z,3.30
2022-10-09T19:43:17.746Z,3.33
2022-10-09T19:46:07.317Z,4.23
2022-10-09T19:48:53.686Z,3.10
2022-10-09T19:51:40.342Z,3.23
2022-10-09T19:54:26.738Z,2.93
2022-10-09T19:57:12.921Z,3.13
2022-10-09T19:59:58.996Z,3.17
2022-10-09T20:02:45.278Z,3.23
2022-10-09T20:05:32.447Z,4.17
2022-10-09T20:08:19.028Z,3.07
2022-10-09T20:11:06.103Z,2.90
2022-10-09T20:13:56.044Z,3.50
2022-10-09T20:16:42.882Z,3.53
2022-10-09T20:19:31.420Z,3.37
2022-10-09T20:22:17.896Z,3.20
2022-10-09T20:25:04.839Z,3.30
2022-10-09T20:27:51.017Z,4.07
2022-10-09T20:30:37.320Z,3.67
2022-10-09T20:33:23.620Z,3.17
2022-10-09T20:36:22.389Z,3.70
2022-10-09T20:39:12.031Z,3.50
2022-10-09T20:41:58.275Z,3.30
2022-10-09T20:44:44.790Z,3.20
2022-10-09T20:47:31.137Z,3.87
2022-10-09T20:50:17.582Z,3.60
2022-10-09T20:53:04.826Z,3.40
2022-10-09T20:55:51.173Z,3.57
2022-10-09T20:58:39.089Z,3.40
2022-10-09T21:01:28.512Z,3.70
2022-10-09T21:04:15.167Z,3.30
2022-10-09T21:07:01.449Z,3.20
2022-10-09T21:09:47.804Z,3.53
2022-10-09T21:12:33.986Z,4.07
2022-10-09T21:15:20.164Z,3.43
2022-10-09T21:18:06.852Z,3.33
2022-10-09T21:20:53.433Z,4.13
2022-10-09T21:23:40.241Z,3.50
2022-10-09T21:26:27.582Z,3.73
2022-10-09T21:29:14.127Z,3.87
2022-10-09T21:32:00.519Z,3.97
2022-10-09T21:34:47.055Z,3.97
2022-10-09T21:37:37.300Z,3.97
2022-10-09T21:40:23.893Z,3.63
2022-10-09T21:43:13.254Z,4.20
2022-10-09T21:45:59.797Z,3.87
2022-10-09T21:48:45.935Z,3.70
2022-10-09T21:51:32.454Z,3.77
2022-10-09T21:54:19.045Z,3.63
2022-10-09T21:57:05.528Z,3.80
2022-10-09T21:59:51.972Z,3.70
2022-10-09T22:02:38.305Z,5.17
2022-10-09T22:05:24.486Z,4.60
2022-10-09T22:08:10.544Z,4.03
2022-10-09T22:10:57.005Z,3.87
2022-10-09T22:13:43.551Z,4.60
2022-10-09T22:16:29.732Z,4.17
2022-10-09T22:19:16.000Z,4.80
2022-10-09T22:22:02.442Z,5.20
2022-10-09T22:24:49.157Z,5.17
2022-10-09T22:27:36.093Z,4.70
2022-10-09T22:30:22.420Z,4.77
2022-10-09T22:33:08.950Z,4.20
2022-10-09T22:36:04.819Z,4.37
2022-10-09T22:38:56.160Z,4.27
2022-10-09T22:41:42.626Z,4.60
2022-10-09T22:44:28.873Z,4.50
2022-10-09T22:47:15.284Z,4.23
2022-10-09T22:50:01.835Z,5.20
2022-10-09T22:52:48.238Z,5.10
2022-10-09T22:55:34.957Z,4.83
2022-10-09T22:58:21.381Z,4.50
2022-10-09T23:01:11.566Z,4.70
2022-10-09T23:03:59.645Z,4.23
2022-10-09T23:06:49.573Z,4.87
2022-10-09T23:09:35.634Z,4.77
2022-10-09T23:12:22.194Z,3.87
2022-10-09T23:15:08.726Z,4.20
2022-10-09T23:17:55.047Z,4.60
2022-10-09T23:20:41.528Z,5.03
2022-10-09T23:23:29.565Z,4.67
2022-10-09T23:26:21.175Z,4.50
2022-10-09T23:29:12.619Z,5.07
2022-10-09T23:31:58.762Z,5.03
2022-10-09T23:34:45.151Z,4.37
2022-10-09T23:37:31.558Z,5.20
2022-10-09T23:40:17.950Z,4.70
2022-10-09T23:43:04.061Z,4.90
2022-10-09T23:45:51.206Z,5.20
2022-10-09T23:48:37.422Z,5.57
2022-10-09T23:51:25.522Z,4.57
2022-10-09T23:54:12.148Z,5.03
2022-10-09T23:56:58.470Z,4.83
2022-10-09T23:59:44.951Z,5.20
